createdAt,value
2023-03-02T00:01:24.375Z,22.65
2023-03-02T00:03:51.205Z,21.08
2023-03-02T00:06:18.222Z,22.98
2023-03-02T00:08:45.996Z,22.27
2023-03-02T00:11:15.693Z,28.03
2023-03-02T00:13:43.455Z,27.80
2023-03-02T00:16:10.101Z,26.52
2023-03-02T00:18:36.612Z,29.10
2023-03-02T00:21:03.225Z,24.10
2023-03-02T00:23:29.877Z,22.37
2023-03-02T00:25:56.399Z,25.17
2023-03-02T00:28:22.847Z,26.02
2023-03-02T00:30:49.297Z,25.58
2023-03-02T00:33:15.784Z,28.63
2023-03-02T00:35:42.460Z,30.13
2023-03-02T00:38:09.284Z,23.15
2023-03-02T00:40:36.495Z,29.02
2023-03-02T00:43:03.101Z,29.15
2023-03-02T00:45:29.960Z,28.42
2023-03-02T00:47:56.481Z,26.23
2023-03-02T00:50:23.071Z,28.70
2023-03-02T00:52:49.592Z,24.02
2023-03-02T00:55:16.195Z,24.60
2023-03-02T00:57:42.721Z,26.92
2023-03-02T01:00:09.700Z,25.83
2023-03-02T01:02:39.062Z,27.33
2023-03-02T01:05:05.969Z,26.42
2023-03-02T01:07:33.255Z,24.15
2023-03-02T01:09:59.699Z,27.55
2023-03-02T01:12:26.276Z,31.00
2023-03-02T01:14:52.809Z,35.25
2023-03-02T01:17:22.198Z,34.05
2023-03-02T01:19:48.749Z,29.73
2023-03-02T01:22:15.276Z,28.13
2023-03-02T01:24:41.822Z,28.70
2023-03-02T01:27:08.476Z,30.13
2023-03-02T01:29:34.983Z,26.73
2023-03-02T01:32:02.427Z,33.13
2023-03-02T01:34:29.096Z,27.75
2023-03-02T01:36:56.051Z,25.97
2023-03-02T01:39:22.769Z,28.00
2023-03-02T01:41:51.459Z,32.28
2023-03-02T01:44:36.247Z,28.58
2023-03-02T01:47:05.105Z,34.13
2023-03-02T01:49:37.636Z,30.63
2023-03-02T01:52:04.364Z,34.30
2023-03-02T01:54:30.984Z,33.88
2023-03-02T01:57:01.990Z,32.33
2023-03-02T01:59:31.554Z,35.63
2023-03-02T02:02:01.893Z,35.83
2023-03-02T02:04:30.422Z,32.97
2023-03-02T02:07:02.217Z,34.45
2023-03-02T02:09:31.997Z,29.52
2023-03-02T02:11:58.632Z,31.65
2023-03-02T02:14:25.548Z,33.13
2023-03-02T02:16:52.583Z,30.17
2023-03-02T02:19:42.305Z,34.47
2023-03-02T02:22:10.758Z,30.63
2023-03-02T02:24:49.626Z,33.55
2023-03-02T02:27:16.218Z,26.33
2023-03-02T02:29:47.661Z,25.15
2023-03-02T02:32:23.559Z,28.92
2023-03-02T02:35:14.554Z,29.25
2023-03-02T02:37:46.531Z,27.98
2023-03-02T02:40:18.590Z,29.07
2023-03-02T02:42:49.798Z,26.02
2023-03-02T02:45:22.390Z,27.60
2023-03-02T02:47:50.281Z,28.40
2023-03-02T02:50:20.711Z,27.40
2023-03-02T02:52:53.915Z,24.20
2023-03-02T02:55:23.299Z,28.98
2023-03-02T02:57:53.551Z,26.45
2023-03-02T03:00:22.248Z,27.25
2023-03-02T03:02:54.082Z,27.77
2023-03-02T03:05:20.604Z,30.37
2023-03-02T03:07:47.270Z,31.73
2023-03-02T03:10:39.829Z,27.63
2023-03-02T03:13:09.218Z,29.10
2023-03-02T03:15:36.337Z,22.55
2023-03-02T03:18:02.864Z,25.10
2023-03-02T03:20:29.856Z,28.13
2023-03-02T03:22:59.294Z,26.80
2023-03-02T03:25:26.578Z,21.10
2023-03-02T03:27:53.109Z,32.22
2023-03-02T03:30:19.748Z,24.73
2023-03-02T03:32:46.349Z,26.10
2023-03-02T03:35:13.157Z,28.75
2023-03-02T03:37:41.237Z,21.70
2023-03-02T03:40:09.900Z,24.48
2023-03-02T03:42:38.063Z,24.13
2023-03-02T03:45:05.967Z,26.73
2023-03-02T03:47:32.449Z,25.92
2023-03-02T03:49:58.927Z,30.13
2023-03-02T03:52:31.420Z,22.17
2023-03-02T03:54:59.915Z,24.43
2023-03-02T03:57:27.825Z,17.48
2023-03-02T03:59:54.690Z,27.58
2023-03-02T04:02:21.984Z,22.77
2023-03-02T04:04:48.598Z,25.20
2023-03-02T04:07:15.211Z,23.90
2023-03-02T04:09:41.805Z,27.40
2023-03-02T04:12:09.604Z,23.75
2023-03-02T04:14:36.306Z,20.98
2023-03-02T04:17:05.412Z,27.90
2023-03-02T04:19:32.471Z,24.83
2023-03-02T04:21:59.593Z,17.60
2023-03-02T04:24:26.123Z,17.15
2023-03-02T04:26:52.783Z,24.48
2023-03-02T04:29:19.762Z,23.15
2023-03-02T04:31:46.511Z,25.60
2023-03-02T04:34:13.155Z,23.65
2023-03-02T04:36:40.318Z,18.67
2023-03-02T04:39:08.433Z,23.50
2023-03-02T04:41:35.568Z,24.25
2023-03-02T04:44:02.362Z,18.93
2023-03-02T04:46:29.152Z,28.23
2023-03-02T04:48:55.761Z,26.13
2023-03-02T04:51:25.989Z,23.02
2023-03-02T04:53:54.925Z,24.92
2023-03-02T04:56:22.045Z,26.53
2023-03-02T04:58:48.565Z,20.85
2023-03-02T05:01:16.668Z,21.92
2023-03-02T05:03:43.208Z,25.17
2023-03-02T05:06:10.596Z,20.75
2023-03-02T05:08:37.581Z,24.23
2023-03-02T05:11:04.952Z,14.40
2023-03-02T05:13:31.400Z,20.02
2023-03-02T05:15:58.499Z,21.75
2023-03-02T05:18:25.654Z,20.73
2023-03-02T05:20:53.652Z,17.67
2023-03-02T05:23:25.713Z,23.08
2023-03-02T05:25:54.672Z,26.33
2023-03-02T05:28:23.226Z,23.60
2023-03-02T05:30:50.010Z,20.25
2023-03-02T05:33:17.110Z,22.27
2023-03-02T05:35:44.394Z,22.90
2023-03-02T05:38:11.800Z,21.25
2023-03-02T05:40:39.183Z,18.80
2023-03-02T05:43:06.437Z,18.15
2023-03-02T05:45:36.178Z,20.17
2023-03-02T05:48:03.553Z,20.35
2023-03-02T05:50:30.420Z,19.63
2023-03-02T05:52:58.219Z,24.98
2023-03-02T05:55:24.814Z,23.63
2023-03-02T05:57:51.275Z,24.03
2023-03-02T06:00:18.687Z,22.55
2023-03-02T06:02:45.236Z,24.45
2023-03-02T06:05:15.228Z,23.95
2023-03-02T06:07:41.896Z,31.48
2023-03-02T06:10:10.155Z,27.03
2023-03-02T06:12:36.938Z,21.13
2023-03-02T06:15:05.517Z,20.92
2023-03-02T06:17:32.321Z,24.52
2023-03-02T06:19:58.777Z,18.85
2023-03-02T06:22:25.420Z,23.47
2023-03-02T06:24:51.971Z,24.27
2023-03-02T06:27:18.700Z,22.73
2023-03-02T06:29:45.219Z,22.88
2023-03-02T06:32:11.848Z,20.83
2023-03-02T06:34:38.423Z,26.47
2023-03-02T06:37:04.914Z,23.75
2023-03-02T06:39:31.516Z,25.08
2023-03-02T06:41:59.264Z,25.40
2023-03-02T06:44:25.764Z,17.88
2023-03-02T06:46:52.249Z,24.97
2023-03-02T06:53:09.578Z,24.92
2023-03-02T06:55:36.111Z,29.75
2023-03-02T06:58:02.532Z,23.65
2023-03-02T07:00:29.203Z,27.73
2023-03-02T07:02:56.551Z,23.13
2023-03-02T07:05:24.451Z,23.67
2023-03-02T07:07:51.020Z,20.63
2023-03-02T07:10:17.738Z,23.25
2023-03-02T07:12:44.466Z,27.40
2023-03-02T07:15:12.306Z,20.67
2023-03-02T07:17:39.769Z,25.63
2023-03-02T07:20:07.058Z,25.67
2023-03-02T07:22:33.787Z,20.75
2023-03-02T07:25:01.624Z,29.47
2023-03-02T07:28:26.531Z,23.17
2023-03-02T07:30:54.072Z,25.55
2023-03-02T07:33:21.395Z,23.85
2023-03-02T07:35:48.530Z,24.52
2023-03-02T07:38:15.123Z,24.70
2023-03-02T07:41:25.194Z,28.23
2023-03-02T07:43:51.693Z,22.15
2023-03-02T07:46:18.224Z,20.08
2023-03-02T07:48:44.756Z,20.75
2023-03-02T07:51:11.215Z,29.67
2023-03-02T07:53:38.488Z,19.02
2023-03-02T07:56:10.212Z,19.65
2023-03-02T07:58:37.571Z,15.10
2023-03-02T08:01:04.690Z,22.23
2023-03-02T08:03:31.305Z,20.37
2023-03-02T08:05:57.931Z,15.40
2023-03-02T08:08:24.548Z,24.88
2023-03-02T08:10:51.163Z,18.35
2023-03-02T08:13:17.929Z,21.52
2023-03-02T08:15:44.487Z,14.63
2023-03-02T08:18:11.005Z,23.20
2023-03-02T08:20:38.156Z,14.80
2023-03-02T08:23:04.601Z,16.30
2023-03-02T08:25:31.155Z,15.93
2023-03-02T08:27:57.653Z,13.53
2023-03-02T08:30:24.152Z,15.68
2023-03-02T08:32:50.787Z,14.70
2023-03-02T08:35:17.464Z,15.43
2023-03-02T08:37:43.993Z,18.80
2023-03-02T08:40:11.183Z,15.07
2023-03-02T08:42:37.700Z,16.90
2023-03-02T08:45:04.636Z,18.67
2023-03-02T08:47:32.585Z,17.20
2023-03-02T08:49:59.247Z,17.92
2023-03-02T08:52:25.748Z,14.97
2023-03-02T08:54:52.304Z,17.02
2023-03-02T08:57:20.404Z,13.43
2023-03-02T08:59:47.833Z,15.30
2023-03-02T09:02:14.302Z,16.05
2023-03-02T09:04:40.903Z,15.07
2023-03-02T09:07:07.493Z,13.70
2023-03-02T09:09:34.079Z,16.63
2023-03-02T09:12:00.684Z,15.20
2023-03-02T09:14:27.430Z,19.98
2023-03-02T09:16:54.452Z,15.50
2023-03-02T09:19:21.248Z,15.25
2023-03-02T09:21:47.759Z,16.73
2023-03-02T09:24:14.235Z,15.27
2023-03-02T09:26:40.882Z,18.85
2023-03-02T09:29:07.527Z,11.63
2023-03-02T09:31:36.494Z,20.63
2023-03-02T09:34:04.475Z,20.77
2023-03-02T09:36:32.782Z,13.70
2023-03-02T09:38:59.541Z,14.25
2023-03-02T09:41:40.085Z,20.13
2023-03-02T09:44:16.949Z,13.23
2023-03-02T09:46:53.962Z,13.20
2023-03-02T09:49:54.582Z,12.23
2023-03-02T09:52:30.357Z,13.50
2023-03-02T09:55:02.305Z,16.87
2023-03-02T09:57:33.851Z,16.02
2023-03-02T10:00:19.521Z,15.95
2023-03-02T10:02:51.169Z,13.55
2023-03-02T10:05:22.821Z,9.77
2023-03-02T10:07:49.785Z,16.57
2023-03-02T10:10:24.870Z,15.45
2023-03-02T10:13:00.568Z,12.82
2023-03-02T10:15:38.234Z,12.95
2023-03-02T10:18:13.890Z,9.77
2023-03-02T10:21:03.587Z,17.13
2023-03-02T10:23:33.061Z,14.82
2023-03-02T10:26:19.603Z,14.15
2023-03-02T10:28:56.870Z,14.45
2023-03-02T10:31:27.996Z,14.73
2023-03-02T10:33:55.395Z,15.30
2023-03-02T10:36:27.792Z,14.18
2023-03-02T10:38:55.627Z,18.38
2023-03-02T10:41:36.391Z,10.27
2023-03-02T10:44:07.842Z,12.10
2023-03-02T10:46:42.829Z,13.97
2023-03-02T10:49:24.991Z,13.18
2023-03-02T10:52:06.087Z,13.40
2023-03-02T10:54:34.494Z,11.63
2023-03-02T10:57:03.839Z,10.93
2023-03-02T10:59:43.575Z,11.30
2023-03-02T11:02:25.100Z,10.70
2023-03-02T11:05:10.772Z,11.65
2023-03-02T11:07:37.248Z,9.90
2023-03-02T11:10:19.101Z,10.10
2023-03-02T11:12:50.801Z,6.77
2023-03-02T11:15:25.546Z,10.10
2023-03-02T11:18:03.251Z,10.48
2023-03-02T11:20:34.939Z,12.25
2023-03-02T11:23:24.029Z,13.93
2023-03-02T11:30:25.909Z,11.40
2023-03-02T11:33:02.285Z,11.32
2023-03-02T11:35:37.779Z,10.38
2023-03-02T11:38:16.459Z,12.00
2023-03-02T11:41:12.359Z,10.13
2023-03-02T11:43:39.016Z,13.00
2023-03-02T11:46:13.835Z,8.60
2023-03-02T11:48:48.868Z,9.10
2023-03-02T11:51:26.440Z,10.23
2023-03-02T11:53:59.271Z,6.50
2023-03-02T11:56:31.263Z,5.93
2023-03-02T11:59:04.719Z,8.00
2023-03-02T12:01:35.011Z,6.30
2023-03-02T12:04:10.915Z,9.48
2023-03-02T12:06:40.946Z,12.60
2023-03-02T12:09:31.340Z,14.50
2023-03-02T12:12:32.812Z,6.40
2023-03-02T12:14:59.858Z,7.05
2023-03-02T12:17:26.347Z,8.80
2023-03-02T12:20:07.721Z,6.10
2023-03-02T12:22:35.078Z,6.65
2023-03-02T12:25:26.497Z,9.18
2023-03-02T12:27:54.929Z,8.18
2023-03-02T12:30:28.099Z,8.27
2023-03-02T12:33:11.559Z,9.10
2023-03-02T12:35:38.574Z,5.97
2023-03-02T12:38:26.756Z,8.65
2023-03-02T12:40:56.308Z,9.18
2023-03-02T12:43:28.176Z,7.13
2023-03-02T12:46:26.064Z,7.03
2023-03-02T12:49:11.571Z,9.70
2023-03-02T12:51:50.659Z,8.95
2023-03-02T12:54:19.575Z,7.93
2023-03-02T12:56:47.133Z,6.15
2023-03-02T12:59:25.780Z,5.63
2023-03-02T13:01:52.514Z,5.70
2023-03-02T13:04:25.039Z,7.45
2023-03-02T13:06:53.683Z,4.95
2023-03-02T13:09:21.665Z,5.35
2023-03-02T13:11:49.701Z,5.53
2023-03-02T13:14:24.531Z,5.47
2023-03-02T13:17:05.282Z,5.85
2023-03-02T13:19:33.044Z,5.97
2023-03-02T13:22:00.541Z,6.20
2023-03-02T13:24:34.659Z,5.50
2023-03-02T13:27:06.965Z,7.85
2023-03-02T13:29:33.900Z,8.65
2023-03-02T13:32:24.302Z,10.32
2023-03-02T13:35:02.457Z,11.38
2023-03-02T13:37:38.828Z,6.00
2023-03-02T13:40:30.796Z,9.23
2023-03-02T13:42:58.077Z,11.95
2023-03-02T13:45:26.084Z,12.38
2023-03-02T13:47:54.495Z,10.52
2023-03-02T13:50:25.778Z,10.57
2023-03-02T13:52:55.332Z,9.23
2023-03-02T13:55:22.343Z,9.18
2023-03-02T13:57:51.055Z,7.85
2023-03-02T14:00:36.332Z,8.50
2023-03-02T14:03:02.853Z,8.40
2023-03-02T14:05:35.540Z,9.70
2023-03-02T14:08:07.219Z,9.07
2023-03-02T14:10:33.711Z,8.63
2023-03-02T14:13:06.118Z,11.07
2023-03-02T14:15:32.780Z,9.80
2023-03-02T14:18:00.444Z,15.60
2023-03-02T14:20:26.969Z,10.35
2023-03-02T14:22:53.451Z,12.20
2023-03-02T14:25:20.611Z,9.70
2023-03-02T14:27:47.496Z,9.90
2023-03-02T14:30:20.466Z,9.93
2023-03-02T14:32:47.244Z,11.02
2023-03-02T14:35:16.580Z,7.85
2023-03-02T14:37:46.884Z,7.95
2023-03-02T14:40:28.406Z,9.80
2023-03-02T14:42:55.069Z,8.68
2023-03-02T14:45:22.006Z,8.50
2023-03-02T14:47:48.983Z,8.98
2023-03-02T14:50:16.921Z,11.48
2023-03-02T14:52:48.080Z,7.90
2023-03-02T14:55:23.710Z,6.65
2023-03-02T14:57:58.403Z,10.05
2023-03-02T15:00:25.868Z,10.18
2023-03-02T15:02:52.549Z,7.90
2023-03-02T15:05:19.648Z,10.00
2023-03-02T15:07:46.651Z,9.77
2023-03-02T15:10:19.860Z,8.20
2023-03-02T15:12:46.714Z,8.07
2023-03-02T15:15:13.634Z,8.52
2023-03-02T15:17:40.896Z,8.70
2023-03-02T15:20:10.012Z,9.05
2023-03-02T15:22:36.492Z,10.52
2023-03-02T15:25:03.048Z,9.48
2023-03-02T15:27:29.608Z,11.30
2023-03-02T15:29:57.020Z,8.03
2023-03-02T15:32:26.664Z,10.35
2023-03-02T15:34:56.000Z,15.38
2023-03-02T15:37:22.669Z,11.00
2023-03-02T15:39:54.272Z,9.80
2023-03-02T15:42:20.778Z,10.50
2023-03-02T15:44:47.408Z,9.10
2023-03-02T15:47:13.962Z,9.18
2023-03-02T15:49:40.601Z,12.05
2023-03-02T15:52:07.156Z,10.93
2023-03-02T15:54:33.663Z,8.80
2023-03-02T15:57:00.144Z,9.48
2023-03-02T15:59:28.816Z,10.38
2023-03-02T16:01:59.939Z,8.60
2023-03-02T16:04:27.770Z,11.02
2023-03-02T16:06:55.073Z,8.97
2023-03-02T16:09:22.336Z,7.97
2023-03-02T16:11:49.771Z,7.97
2023-03-02T16:14:16.377Z,8.25
2023-03-02T16:16:43.711Z,7.55
2023-03-02T16:19:17.725Z,8.57
2023-03-02T16:21:45.666Z,9.50
2023-03-02T16:24:13.099Z,10.38
2023-03-02T16:26:39.642Z,8.38
2023-03-02T16:29:08.120Z,9.93
2023-03-02T16:32:10.005Z,9.27
2023-03-02T16:35:33.219Z,10.48
2023-03-02T16:38:00.435Z,9.75
2023-03-02T16:40:27.728Z,14.15
2023-03-02T16:42:54.557Z,12.20
2023-03-02T16:45:52.491Z,16.17
2023-03-02T16:48:37.284Z,11.32
2023-03-02T16:51:04.882Z,10.70
2023-03-02T16:53:31.453Z,12.23
2023-03-02T16:55:57.929Z,11.55
2023-03-02T16:58:25.035Z,14.13
2023-03-02T17:00:51.655Z,15.45
2023-03-02T17:03:20.431Z,13.15
2023-03-02T17:05:46.978Z,13.73
2023-03-02T17:08:14.823Z,14.80
2023-03-02T17:10:42.312Z,13.60
2023-03-02T17:13:09.726Z,11.57
2023-03-02T17:15:36.295Z,14.70
2023-03-02T17:18:02.879Z,13.52
2023-03-02T17:20:29.416Z,13.02
2023-03-02T17:22:55.889Z,13.67
2023-03-02T17:25:22.932Z,11.90
2023-03-02T17:27:49.460Z,13.25
2023-03-02T17:30:16.468Z,15.85
2023-03-02T17:32:43.162Z,10.13
2023-03-02T17:35:12.134Z,10.90
2023-03-02T17:37:38.661Z,10.13
2023-03-02T17:40:06.665Z,11.77
2023-03-02T17:42:33.249Z,13.70
2023-03-02T17:45:00.021Z,12.20
2023-03-02T17:47:26.672Z,13.00
2023-03-02T17:49:53.215Z,12.85
2023-03-02T17:52:19.935Z,10.65
2023-03-02T17:54:46.509Z,10.40
2023-03-02T17:57:13.186Z,9.98
2023-03-02T17:59:39.672Z,12.80
2023-03-02T18:02:06.122Z,10.70
2023-03-02T18:04:32.671Z,11.65
2023-03-02T18:06:59.170Z,12.30
2023-03-02T18:09:25.701Z,9.65
2023-03-02T18:11:52.257Z,9.00
2023-03-02T18:14:20.424Z,9.32
2023-03-02T18:16:47.254Z,11.55
2023-03-02T18:19:13.844Z,13.88
2023-03-02T18:21:42.057Z,11.40
2023-03-02T18:24:09.481Z,11.03
2023-03-02T18:26:36.357Z,9.40
2023-03-02T18:33:11.023Z,11.25
2023-03-02T18:35:38.284Z,8.52
2023-03-02T18:38:05.078Z,10.53
2023-03-02T18:40:31.642Z,11.88
2023-03-02T18:42:58.350Z,9.68
2023-03-02T18:45:28.570Z,9.32
2023-03-02T18:47:55.858Z,6.45
2023-03-02T18:50:23.229Z,10.73
2023-03-02T18:52:52.852Z,10.32
2023-03-02T18:55:24.414Z,12.60
2023-03-02T18:57:53.798Z,10.60
2023-03-02T19:00:26.681Z,8.07
2023-03-02T19:02:56.816Z,10.97
2023-03-02T19:05:25.186Z,9.10
2023-03-02T19:07:51.725Z,10.80
2023-03-02T19:10:20.577Z,11.88
2023-03-02T19:12:48.048Z,11.68
2023-03-02T19:15:14.587Z,11.40
2023-03-02T19:17:45.872Z,10.73
2023-03-02T19:20:16.832Z,10.07
2023-03-02T19:22:43.355Z,9.15
2023-03-02T19:25:10.587Z,11.10
2023-03-02T19:27:37.747Z,13.83
2023-03-02T19:30:06.354Z,13.75
2023-03-02T19:32:33.188Z,10.82
2023-03-02T19:35:01.217Z,12.02
2023-03-02T19:37:27.693Z,13.95
2023-03-02T19:39:54.347Z,14.83
2023-03-02T19:42:20.871Z,10.48
2023-03-02T19:44:47.408Z,17.20
2023-03-02T19:47:13.976Z,12.30
2023-03-02T19:49:40.560Z,11.98
2023-03-02T19:52:07.026Z,13.17
2023-03-02T19:54:33.547Z,11.90
2023-03-02T19:57:00.160Z,10.98
2023-03-02T19:59:27.354Z,10.95
2023-03-02T20:01:55.425Z,12.52
2023-03-02T20:04:22.059Z,14.10
2023-03-02T20:06:48.584Z,14.85
2023-03-02T20:09:19.653Z,13.32
2023-03-02T20:11:47.401Z,13.93
2023-03-02T20:14:27.588Z,13.00
2023-03-02T20:16:59.632Z,14.27
2023-03-02T20:19:26.123Z,10.30
2023-03-02T20:21:52.564Z,14.07
2023-03-02T20:24:19.120Z,13.75
2023-03-02T20:26:45.865Z,12.63
2023-03-02T20:29:12.639Z,14.63
2023-03-02T20:31:39.749Z,15.07
2023-03-02T20:34:10.980Z,14.27
2023-03-02T20:36:38.048Z,14.63
2023-03-02T20:39:10.402Z,11.43
2023-03-02T20:41:37.015Z,13.63
2023-03-02T20:44:05.418Z,14.65
2023-03-02T20:46:36.112Z,14.88
2023-03-02T20:49:04.564Z,15.20
2023-03-02T20:51:31.279Z,16.67
2023-03-02T20:53:58.565Z,16.20
2023-03-02T20:56:25.570Z,16.70
2023-03-02T20:58:52.097Z,17.65
2023-03-02T21:01:19.829Z,17.05
2023-03-02T21:03:46.797Z,27.48
2023-03-02T21:06:15.255Z,19.13
2023-03-02T21:08:42.845Z,18.52
2023-03-02T21:11:12.739Z,20.05
2023-03-02T21:13:39.388Z,18.88
2023-03-02T21:16:08.557Z,17.15
2023-03-02T21:18:35.481Z,21.73
2023-03-02T21:21:03.132Z,14.85
2023-03-02T21:23:30.152Z,17.33
2023-03-02T21:25:57.201Z,20.90
2023-03-02T21:28:23.769Z,24.23
2023-03-02T21:30:50.579Z,17.53
2023-03-02T21:33:17.123Z,18.42
2023-03-02T21:35:46.331Z,19.35
2023-03-02T21:38:13.160Z,20.75
2023-03-02T21:40:43.092Z,17.35
2023-03-02T21:43:09.735Z,20.87
2023-03-02T21:45:37.367Z,21.85
2023-03-02T21:48:05.198Z,21.77
2023-03-02T21:50:35.662Z,19.40
2023-03-02T21:53:02.386Z,18.13
2023-03-02T21:55:30.285Z,19.93
2023-03-02T21:57:57.569Z,18.73
2023-03-02T22:00:30.742Z,18.92
2023-03-02T22:02:57.176Z,18.05
2023-03-02T22:05:23.694Z,23.60
2023-03-02T22:07:50.414Z,17.70
2023-03-02T22:10:42.554Z,19.90
2023-03-02T22:13:15.346Z,21.73
2023-03-02T22:15:41.869Z,24.85
2023-03-02T22:18:17.058Z,20.08
2023-03-02T22:20:46.086Z,22.00
2023-03-02T22:23:21.420Z,16.30
2023-03-02T22:25:53.675Z,20.65
2023-03-02T22:28:23.387Z,19.83
2023-03-02T22:30:51.544Z,18.33
2023-03-02T22:33:23.783Z,21.20
2023-03-02T22:35:53.140Z,21.30
2023-03-02T22:38:27.938Z,17.38
2023-03-02T22:40:55.431Z,21.25
2023-03-02T22:43:33.112Z,18.83
2023-03-02T22:46:10.711Z,16.33
2023-03-02T22:48:38.203Z,19.48
2023-03-02T22:51:15.378Z,13.55
2023-03-02T22:53:53.169Z,17.00
2023-03-02T22:56:34.152Z,18.20
2023-03-02T22:59:16.956Z,15.27
2023-03-02T23:01:45.012Z,21.95
2023-03-02T23:04:17.646Z,17.73
2023-03-02T23:06:47.723Z,15.65
2023-03-02T23:09:18.232Z,16.70
2023-03-02T23:11:45.004Z,16.73
2023-03-02T23:14:21.153Z,17.95
2023-03-02T23:16:56.948Z,12.90
2023-03-02T23:19:25.660Z,15.18
2023-03-02T23:21:52.111Z,14.27
2023-03-02T23:24:20.731Z,13.90
2023-03-02T23:26:49.407Z,15.32
2023-03-02T23:29:16.746Z,13.35
2023-03-02T23:31:43.865Z,15.50
2023-03-02T23:34:11.384Z,15.88
2023-03-02T23:36:38.129Z,17.07
2023-03-02T23:39:05.676Z,13.85
2023-03-02T23:41:32.322Z,13.27
2023-03-02T23:43:59.008Z,13.02
2023-03-02T23:46:25.814Z,11.35
2023-03-02T23:48:53.102Z,13.60
2023-03-02T23:51:19.779Z,11.27
2023-03-02T23:53:47.148Z,11.35
2023-03-02T23:56:13.651Z,11.15
2023-03-02T23:58:40.519Z,9.02
